sensor_id;sensor_type;location;lat;lon;timestamp;P1;durP1;ratioP1;P2;durP2;ratioP2
11064;SDS011;5585;52.530;7.320;2022-08-05T00:01:11;3.13;;;2.53;;
11064;SDS011;5585;52.530;7.320;2022-08-05T00:03:38;5.55;;;2.65;;
11064;SDS011;5585;52.530;7.320;2022-08-05T00:06:04;3.58;;;2.50;;
11064;SDS011;5585;52.530;7.320;2022-08-05T00:08:31;3.72;;;2.33;;
11064;SDS011;5585;52.530;7.320;2022-08-05T00:10:58;3.25;;;2.33;;
11064;SDS011;5585;52.530;7.320;2022-08-05T00:13:24;3.40;;;2.20;;
11064;SDS011;5585;52.530;7.320;2022-08-05T00:15:51;3.30;;;2.17;;
11064;SDS011;5585;52.530;7.320;2022-08-05T00:18:19;2.40;;;2.20;;
11064;SDS011;5585;52.530;7.320;2022-08-05T00:20:45;3.47;;;2.25;;
11064;SDS011;5585;52.530;7.320;2022-08-05T00:23:11;3.25;;;2.13;;
11064;SDS011;5585;52.530;7.320;2022-08-05T00:25:41;3.38;;;2.33;;
11064;SDS011;5585;52.530;7.320;2022-08-05T00:28:07;2.70;;;2.08;;
11064;SDS011;5585;52.530;7.320;2022-08-05T00:30:34;5.22;;;2.13;;
11064;SDS011;5585;52.530;7.320;2022-08-05T00:33:00;3.53;;;2.10;;
11064;SDS011;5585;52.530;7.320;2022-08-05T00:35:28;4.57;;;2.63;;
11064;SDS011;5585;52.530;7.320;2022-08-05T00:37:55;4.53;;;2.50;;
11064;SDS011;5585;52.530;7.320;2022-08-05T00:40:22;3.05;;;2.20;;
11064;SDS011;5585;52.530;7.320;2022-08-05T00:42:49;3.80;;;2.75;;
11064;SDS011;5585;52.530;7.320;2022-08-05T00:45:15;2.60;;;2.40;;
11064;SDS011;5585;52.530;7.320;2022-08-05T00:47:42;4.80;;;2.42;;
11064;SDS011;5585;52.530;7.320;2022-08-05T00:50:08;4.65;;;2.10;;
11064;SDS011;5585;52.530;7.320;2022-08-05T00:52:36;3.05;;;1.77;;
11064;SDS011;5585;52.530;7.320;2022-08-05T00:55:03;2.63;;;2.08;;
11064;SDS011;5585;52.530;7.320;2022-08-05T00:57:30;2.95;;;2.03;;
11064;SDS011;5585;52.530;7.320;2022-08-05T00:59:56;3.42;;;2.42;;
11064;SDS011;5585;52.530;7.320;2022-08-05T01:02:23;3.20;;;2.45;;
11064;SDS011;5585;52.530;7.320;2022-08-05T01:04:49;3.53;;;2.25;;
11064;SDS011;5585;52.530;7.320;2022-08-05T01:07:16;4.97;;;2.47;;
11064;SDS011;5585;52.530;7.320;2022-08-05T01:09:43;3.58;;;2.03;;
11064;SDS011;5585;52.530;7.320;2022-08-05T01:12:11;4.63;;;2.33;;
11064;SDS011;5585;52.530;7.320;2022-08-05T01:14:39;4.13;;;2.20;;
11064;SDS011;5585;52.530;7.320;2022-08-05T01:17:07;2.70;;;2.05;;
11064;SDS011;5585;52.530;7.320;2022-08-05T01:19:35;3.58;;;1.75;;
11064;SDS011;5585;52.530;7.320;2022-08-05T01:24:49;3.05;;;2.20;;
11064;SDS011;5585;52.530;7.320;2022-08-05T01:27:22;3.33;;;2.25;;
11064;SDS011;5585;52.530;7.320;2022-08-05T01:29:53;2.83;;;1.80;;
11064;SDS011;5585;52.530;7.320;2022-08-05T01:32:22;4.20;;;2.10;;
11064;SDS011;5585;52.530;7.320;2022-08-05T01:34:50;3.38;;;2.00;;
11064;SDS011;5585;52.530;7.320;2022-08-05T01:37:21;3.30;;;1.90;;
11064;SDS011;5585;52.530;7.320;2022-08-05T01:39:49;3.40;;;1.90;;
11064;SDS011;5585;52.530;7.320;2022-08-05T01:42:18;3.17;;;1.92;;
11064;SDS011;5585;52.530;7.320;2022-08-05T01:44:45;2.60;;;1.83;;
11064;SDS011;5585;52.530;7.320;2022-08-05T01:47:14;2.80;;;1.80;;
11064;SDS011;5585;52.530;7.320;2022-08-05T01:49:42;2.45;;;1.60;;
11064;SDS011;5585;52.530;7.320;2022-08-05T01:52:10;1.92;;;1.42;;
11064;SDS011;5585;52.530;7.320;2022-08-05T01:54:38;2.88;;;1.63;;
11064;SDS011;5585;52.530;7.320;2022-08-05T01:57:05;2.88;;;1.98;;
11064;SDS011;5585;52.530;7.320;2022-08-05T01:59:31;3.97;;;2.13;;
11064;SDS011;5585;52.530;7.320;2022-08-05T02:02:00;2.47;;;1.90;;
11064;SDS011;5585;52.530;7.320;2022-08-05T02:04:29;3.55;;;1.98;;
11064;SDS011;5585;52.530;7.320;2022-08-05T02:06:56;2.80;;;2.00;;
11064;SDS011;5585;52.530;7.320;2022-08-05T02:09:23;3.47;;;2.42;;
11064;SDS011;5585;52.530;7.320;2022-08-05T02:11:50;2.20;;;2.00;;
11064;SDS011;5585;52.530;7.320;2022-08-05T02:14:19;2.10;;;1.65;;
11064;SDS011;5585;52.530;7.320;2022-08-05T02:16:48;3.28;;;2.25;;
11064;SDS011;5585;52.530;7.320;2022-08-05T02:19:17;2.88;;;1.98;;
11064;SDS011;5585;52.530;7.320;2022-08-05T02:21:49;4.05;;;2.33;;
11064;SDS011;5585;52.530;7.320;2022-08-05T02:24:17;3.22;;;2.10;;
11064;SDS011;5585;52.530;7.320;2022-08-05T02:26:45;3.30;;;2.33;;
11064;SDS011;5585;52.530;7.320;2022-08-05T02:29:12;4.97;;;2.70;;
11064;SDS011;5585;52.530;7.320;2022-08-05T02:31:41;2.70;;;2.35;;
11064;SDS011;5585;52.530;7.320;2022-08-05T02:34:09;4.05;;;2.60;;
11064;SDS011;5585;52.530;7.320;2022-08-05T02:36:38;3.75;;;2.38;;
11064;SDS011;5585;52.530;7.320;2022-08-05T02:39:07;2.67;;;1.98;;
11064;SDS011;5585;52.530;7.320;2022-08-05T02:41:34;3.33;;;2.03;;
11064;SDS011;5585;52.530;7.320;2022-08-05T02:44:02;2.53;;;2.10;;
11064;SDS011;5585;52.530;7.320;2022-08-05T02:46:29;4.93;;;2.10;;
11064;SDS011;5585;52.530;7.320;2022-08-05T02:48:56;2.38;;;1.92;;
11064;SDS011;5585;52.530;7.320;2022-08-05T02:51:22;3.17;;;2.13;;
11064;SDS011;5585;52.530;7.320;2022-08-05T02:53:50;4.28;;;2.33;;
11064;SDS011;5585;52.530;7.320;2022-08-05T02:56:18;3.28;;;1.90;;
11064;SDS011;5585;52.530;7.320;2022-08-05T02:58:44;2.92;;;2.00;;
11064;SDS011;5585;52.530;7.320;2022-08-05T03:01:13;3.38;;;2.05;;
11064;SDS011;5585;52.530;7.320;2022-08-05T03:03:42;2.53;;;1.85;;
11064;SDS011;5585;52.530;7.320;2022-08-05T03:06:09;3.75;;;1.90;;
11064;SDS011;5585;52.530;7.320;2022-08-05T03:08:36;2.70;;;1.75;;
11064;SDS011;5585;52.530;7.320;2022-08-05T03:11:03;2.33;;;1.60;;
11064;SDS011;5585;52.530;7.320;2022-08-05T03:13:31;3.08;;;1.98;;
11064;SDS011;5585;52.530;7.320;2022-08-05T03:15:57;2.20;;;1.90;;
11064;SDS011;5585;52.530;7.320;2022-08-05T03:18:24;2.85;;;2.25;;
11064;SDS011;5585;52.530;7.320;2022-08-05T03:20:50;3.13;;;1.70;;
11064;SDS011;5585;52.530;7.320;2022-08-05T03:23:17;2.15;;;1.45;;
11064;SDS011;5585;52.530;7.320;2022-08-05T03:25:43;2.92;;;1.60;;
11064;SDS011;5585;52.530;7.320;2022-08-05T03:28:10;3.15;;;1.70;;
11064;SDS011;5585;52.530;7.320;2022-08-05T03:30:38;4.38;;;2.00;;
11064;SDS011;5585;52.530;7.320;2022-08-05T03:33:05;4.90;;;1.95;;
11064;SDS011;5585;52.530;7.320;2022-08-05T03:35:31;3.88;;;2.38;;
11064;SDS011;5585;52.530;7.320;2022-08-05T03:37:58;4.05;;;2.45;;
11064;SDS011;5585;52.530;7.320;2022-08-05T03:40:25;3.40;;;2.30;;
11064;SDS011;5585;52.530;7.320;2022-08-05T03:42:51;2.58;;;2.15;;
11064;SDS011;5585;52.530;7.320;2022-08-05T03:45:18;3.55;;;2.00;;
11064;SDS011;5585;52.530;7.320;2022-08-05T03:47:46;3.85;;;2.47;;
11064;SDS011;5585;52.530;7.320;2022-08-05T03:50:12;2.63;;;2.00;;
11064;SDS011;5585;52.530;7.320;2022-08-05T03:52:41;3.53;;;2.05;;
11064;SDS011;5585;52.530;7.320;2022-08-05T03:55:09;4.30;;;2.20;;
11064;SDS011;5585;52.530;7.320;2022-08-05T03:57:37;2.22;;;2.00;;
11064;SDS011;5585;52.530;7.320;2022-08-05T04:00:05;4.07;;;2.17;;
11064;SDS011;5585;52.530;7.320;2022-08-05T04:02:32;2.45;;;2.25;;
11064;SDS011;5585;52.530;7.320;2022-08-05T04:05:01;2.65;;;2.10;;
11064;SDS011;5585;52.530;7.320;2022-08-05T04:07:28;3.15;;;2.08;;
11064;SDS011;5585;52.530;7.320;2022-08-05T04:09:55;3.03;;;1.90;;
11064;SDS011;5585;52.530;7.320;2022-08-05T04:12:21;3.35;;;2.10;;
11064;SDS011;5585;52.530;7.320;2022-08-05T04:14:48;4.00;;;1.90;;
11064;SDS011;5585;52.530;7.320;2022-08-05T04:17:15;2.95;;;2.00;;
11064;SDS011;5585;52.530;7.320;2022-08-05T04:19:42;2.83;;;1.83;;
11064;SDS011;5585;52.530;7.320;2022-08-05T04:22:10;2.00;;;1.75;;
11064;SDS011;5585;52.530;7.320;2022-08-05T04:24:37;4.07;;;2.03;;
11064;SDS011;5585;52.530;7.320;2022-08-05T04:27:04;3.38;;;1.90;;
11064;SDS011;5585;52.530;7.320;2022-08-05T04:29:30;2.25;;;1.80;;
11064;SDS011;5585;52.530;7.320;2022-08-05T04:31:57;3.35;;;1.85;;
11064;SDS011;5585;52.530;7.320;2022-08-05T04:34:23;3.08;;;2.05;;
11064;SDS011;5585;52.530;7.320;2022-08-05T04:36:49;2.15;;;1.85;;
11064;SDS011;5585;52.530;7.320;2022-08-05T04:39:17;2.20;;;2.00;;
11064;SDS011;5585;52.530;7.320;2022-08-05T04:41:44;2.78;;;2.00;;
11064;SDS011;5585;52.530;7.320;2022-08-05T04:44:10;2.40;;;2.20;;
11064;SDS011;5585;52.530;7.320;2022-08-05T04:46:37;3.03;;;2.00;;
11064;SDS011;5585;52.530;7.320;2022-08-05T04:49:03;2.75;;;2.10;;
11064;SDS011;5585;52.530;7.320;2022-08-05T04:51:30;2.78;;;1.92;;
11064;SDS011;5585;52.530;7.320;2022-08-05T04:53:56;3.58;;;2.20;;
11064;SDS011;5585;52.530;7.320;2022-08-05T04:56:24;1.98;;;1.60;;
11064;SDS011;5585;52.530;7.320;2022-08-05T04:58:51;3.00;;;1.70;;
11064;SDS011;5585;52.530;7.320;2022-08-05T05:01:17;2.85;;;2.00;;
11064;SDS011;5585;52.530;7.320;2022-08-05T05:03:43;4.63;;;2.22;;
11064;SDS011;5585;52.530;7.320;2022-08-05T05:06:10;3.13;;;2.25;;
11064;SDS011;5585;52.530;7.320;2022-08-05T05:08:37;3.67;;;2.03;;
11064;SDS011;5585;52.530;7.320;2022-08-05T05:11:04;3.38;;;2.03;;
11064;SDS011;5585;52.530;7.320;2022-08-05T05:13:31;4.57;;;2.53;;
11064;SDS011;5585;52.530;7.320;2022-08-05T05:15:58;4.22;;;2.40;;
11064;SDS011;5585;52.530;7.320;2022-08-05T05:18:24;2.80;;;2.20;;
11064;SDS011;5585;52.530;7.320;2022-08-05T05:20:51;2.67;;;1.92;;
11064;SDS011;5585;52.530;7.320;2022-08-05T05:23:17;2.83;;;2.53;;
11064;SDS011;5585;52.530;7.320;2022-08-05T05:25:44;3.78;;;2.80;;
11064;SDS011;5585;52.530;7.320;2022-08-05T05:28:10;3.55;;;2.30;;
11064;SDS011;5585;52.530;7.320;2022-08-05T05:30:38;3.42;;;2.50;;
11064;SDS011;5585;52.530;7.320;2022-08-05T05:33:06;3.88;;;2.78;;
11064;SDS011;5585;52.530;7.320;2022-08-05T05:35:33;4.55;;;3.03;;
11064;SDS011;5585;52.530;7.320;2022-08-05T05:38:01;4.72;;;3.28;;
11064;SDS011;5585;52.530;7.320;2022-08-05T05:40:29;5.20;;;3.20;;
11064;SDS011;5585;52.530;7.320;2022-08-05T05:42:56;3.00;;;2.80;;
11064;SDS011;5585;52.530;7.320;2022-08-05T05:45:22;4.28;;;3.10;;
11064;SDS011;5585;52.530;7.320;2022-08-05T05:47:50;3.67;;;3.13;;
11064;SDS011;5585;52.530;7.320;2022-08-05T05:50:17;6.47;;;3.80;;
11064;SDS011;5585;52.530;7.320;2022-08-05T05:52:45;4.88;;;3.50;;
11064;SDS011;5585;52.530;7.320;2022-08-05T05:55:12;3.47;;;3.17;;
11064;SDS011;5585;52.530;7.320;2022-08-05T05:57:39;4.60;;;3.55;;
11064;SDS011;5585;52.530;7.320;2022-08-05T06:00:07;4.28;;;3.88;;
11064;SDS011;5585;52.530;7.320;2022-08-05T06:02:34;4.88;;;3.58;;
11064;SDS011;5585;52.530;7.320;2022-08-05T06:05:02;5.35;;;3.67;;
11064;SDS011;5585;52.530;7.320;2022-08-05T06:07:28;6.38;;;4.10;;
11064;SDS011;5585;52.530;7.320;2022-08-05T06:09:55;5.57;;;3.85;;
11064;SDS011;5585;52.530;7.320;2022-08-05T06:12:21;6.00;;;4.57;;
11064;SDS011;5585;52.530;7.320;2022-08-05T06:14:47;5.82;;;3.90;;
11064;SDS011;5585;52.530;7.320;2022-08-05T06:17:14;3.83;;;3.53;;
11064;SDS011;5585;52.530;7.320;2022-08-05T06:19:40;5.32;;;4.18;;
11064;SDS011;5585;52.530;7.320;2022-08-05T06:22:08;4.25;;;3.85;;
11064;SDS011;5585;52.530;7.320;2022-08-05T06:24:35;5.80;;;4.35;;
11064;SDS011;5585;52.530;7.320;2022-08-05T06:27:01;5.25;;;3.70;;
11064;SDS011;5585;52.530;7.320;2022-08-05T06:29:28;4.13;;;3.72;;
11064;SDS011;5585;52.530;7.320;2022-08-05T06:31:54;5.85;;;3.65;;
11064;SDS011;5585;52.530;7.320;2022-08-05T06:34:21;4.32;;;3.65;;
11064;SDS011;5585;52.530;7.320;2022-08-05T06:36:47;4.05;;;3.63;;
11064;SDS011;5585;52.530;7.320;2022-08-05T06:39:16;4.60;;;3.50;;
11064;SDS011;5585;52.530;7.320;2022-08-05T06:41:42;4.15;;;3.47;;
11064;SDS011;5585;52.530;7.320;2022-08-05T06:44:08;5.22;;;3.58;;
11064;SDS011;5585;52.530;7.320;2022-08-05T06:46:35;4.70;;;3.50;;
11064;SDS011;5585;52.530;7.320;2022-08-05T06:49:01;3.85;;;3.45;;
11064;SDS011;5585;52.530;7.320;2022-08-05T06:51:28;4.72;;;3.47;;
11064;SDS011;5585;52.530;7.320;2022-08-05T06:53:55;4.63;;;3.45;;
11064;SDS011;5585;52.530;7.320;2022-08-05T06:56:23;3.53;;;3.00;;
11064;SDS011;5585;52.530;7.320;2022-08-05T06:58:49;4.72;;;3.35;;
11064;SDS011;5585;52.530;7.320;2022-08-05T07:01:16;5.25;;;3.88;;
11064;SDS011;5585;52.530;7.320;2022-08-05T07:03:42;5.18;;;4.22;;
11064;SDS011;5585;52.530;7.320;2022-08-05T07:06:09;5.05;;;3.72;;
11064;SDS011;5585;52.530;7.320;2022-08-05T07:08:36;4.20;;;3.58;;
11064;SDS011;5585;52.530;7.320;2022-08-05T07:11:02;5.07;;;3.15;;
11064;SDS011;5585;52.530;7.320;2022-08-05T07:13:32;3.92;;;3.13;;
11064;SDS011;5585;52.530;7.320;2022-08-05T07:16:16;3.80;;;2.90;;
11064;SDS011;5585;52.530;7.320;2022-08-05T07:19:00;3.90;;;3.50;;
11064;SDS011;5585;52.530;7.320;2022-08-05T07:21:26;4.55;;;3.30;;
11064;SDS011;5585;52.530;7.320;2022-08-05T07:23:53;4.82;;;3.10;;
11064;SDS011;5585;52.530;7.320;2022-08-05T07:26:19;4.70;;;3.38;;
11064;SDS011;5585;52.530;7.320;2022-08-05T07:28:47;3.95;;;2.70;;
11064;SDS011;5585;52.530;7.320;2022-08-05T07:31:14;3.90;;;3.03;;
11064;SDS011;5585;52.530;7.320;2022-08-05T07:33:41;4.95;;;3.17;;
11064;SDS011;5585;52.530;7.320;2022-08-05T07:36:08;4.05;;;3.45;;
11064;SDS011;5585;52.530;7.320;2022-08-05T07:38:35;4.20;;;3.08;;
11064;SDS011;5585;52.530;7.320;2022-08-05T07:41:02;3.67;;;2.47;;
11064;SDS011;5585;52.530;7.320;2022-08-05T07:43:29;2.95;;;2.40;;
11064;SDS011;5585;52.530;7.320;2022-08-05T07:45:56;3.30;;;2.60;;
11064;SDS011;5585;52.530;7.320;2022-08-05T07:48:23;2.53;;;2.33;;
11064;SDS011;5585;52.530;7.320;2022-08-05T07:50:49;3.15;;;2.40;;
11064;SDS011;5585;52.530;7.320;2022-08-05T07:53:16;3.40;;;2.63;;
11064;SDS011;5585;52.530;7.320;2022-08-05T07:55:42;2.55;;;2.35;;
11064;SDS011;5585;52.530;7.320;2022-08-05T07:58:09;3.35;;;2.72;;
11064;SDS011;5585;52.530;7.320;2022-08-05T08:00:35;3.10;;;2.80;;
11064;SDS011;5585;52.530;7.320;2022-08-05T08:03:03;3.40;;;2.67;;
11064;SDS011;5585;52.530;7.320;2022-08-05T08:05:34;2.85;;;2.58;;
11064;SDS011;5585;52.530;7.320;2022-08-05T08:08:01;2.90;;;2.60;;
11064;SDS011;5585;52.530;7.320;2022-08-05T08:10:27;4.22;;;2.95;;
11064;SDS011;5585;52.530;7.320;2022-08-05T08:12:54;4.13;;;3.40;;
11064;SDS011;5585;52.530;7.320;2022-08-05T08:15:21;3.25;;;2.95;;
11064;SDS011;5585;52.530;7.320;2022-08-05T08:17:47;3.13;;;2.83;;
11064;SDS011;5585;52.530;7.320;2022-08-05T08:20:15;3.97;;;2.97;;
11064;SDS011;5585;52.530;7.320;2022-08-05T08:22:41;3.80;;;3.10;;
11064;SDS011;5585;52.530;7.320;2022-08-05T08:25:08;3.45;;;2.70;;
11064;SDS011;5585;52.530;7.320;2022-08-05T08:27:35;3.15;;;2.85;;
11064;SDS011;5585;52.530;7.320;2022-08-05T08:30:01;4.22;;;3.03;;
11064;SDS011;5585;52.530;7.320;2022-08-05T08:32:28;3.35;;;3.00;;
11064;SDS011;5585;52.530;7.320;2022-08-05T08:34:54;3.33;;;2.60;;
11064;SDS011;5585;52.530;7.320;2022-08-05T08:37:22;3.75;;;2.67;;
11064;SDS011;5585;52.530;7.320;2022-08-05T08:39:49;2.85;;;2.38;;
11064;SDS011;5585;52.530;7.320;2022-08-05T08:42:15;4.68;;;2.55;;
11064;SDS011;5585;52.530;7.320;2022-08-05T08:44:42;4.22;;;2.55;;
11064;SDS011;5585;52.530;7.320;2022-08-05T08:47:09;4.00;;;2.70;;
11064;SDS011;5585;52.530;7.320;2022-08-05T08:49:36;3.90;;;3.10;;
11064;SDS011;5585;52.530;7.320;2022-08-05T08:52:05;3.47;;;3.17;;
11064;SDS011;5585;52.530;7.320;2022-08-05T08:54:35;4.22;;;2.67;;
11064;SDS011;5585;52.530;7.320;2022-08-05T08:57:03;4.25;;;2.88;;
11064;SDS011;5585;52.530;7.320;2022-08-05T08:59:30;3.90;;;3.20;;
11064;SDS011;5585;52.530;7.320;2022-08-05T09:01:56;3.65;;;2.85;;
11064;SDS011;5585;52.530;7.320;2022-08-05T09:04:23;3.58;;;3.00;;
11064;SDS011;5585;52.530;7.320;2022-08-05T09:06:50;4.90;;;3.20;;
11064;SDS011;5585;52.530;7.320;2022-08-05T09:09:16;3.40;;;2.88;;
11064;SDS011;5585;52.530;7.320;2022-08-05T09:11:44;4.03;;;2.90;;
11064;SDS011;5585;52.530;7.320;2022-08-05T09:14:11;4.03;;;3.05;;
11064;SDS011;5585;52.530;7.320;2022-08-05T09:16:37;5.10;;;2.88;;
11064;SDS011;5585;52.530;7.320;2022-08-05T09:19:05;3.83;;;3.22;;
11064;SDS011;5585;52.530;7.320;2022-08-05T09:21:32;2.80;;;2.60;;
11064;SDS011;5585;52.530;7.320;2022-08-05T09:24:02;3.83;;;2.90;;
11064;SDS011;5585;52.530;7.320;2022-08-05T09:26:29;3.42;;;2.90;;
11064;SDS011;5585;52.530;7.320;2022-08-05T09:28:59;4.07;;;3.50;;
11064;SDS011;5585;52.530;7.320;2022-08-05T09:31:29;4.47;;;3.10;;
11064;SDS011;5585;52.530;7.320;2022-08-05T09:33:56;4.15;;;3.53;;
11064;SDS011;5585;52.530;7.320;2022-08-05T09:36:23;3.47;;;3.17;;
11064;SDS011;5585;52.530;7.320;2022-08-05T09:38:55;3.80;;;3.40;;
11064;SDS011;5585;52.530;7.320;2022-08-05T09:41:21;3.83;;;3.40;;
11064;SDS011;5585;52.530;7.320;2022-08-05T09:43:48;3.45;;;3.15;;
11064;SDS011;5585;52.530;7.320;2022-08-05T09:46:25;4.13;;;3.47;;
11064;SDS011;5585;52.530;7.320;2022-08-05T09:48:52;4.78;;;3.17;;
11064;SDS011;5585;52.530;7.320;2022-08-05T09:51:29;3.75;;;2.42;;
11064;SDS011;5585;52.530;7.320;2022-08-05T09:53:56;3.28;;;2.97;;
11064;SDS011;5585;52.530;7.320;2022-08-05T09:56:23;4.65;;;3.17;;
11064;SDS011;5585;52.530;7.320;2022-08-05T09:58:57;4.88;;;3.13;;
11064;SDS011;5585;52.530;7.320;2022-08-05T10:01:25;3.42;;;2.60;;
11064;SDS011;5585;52.530;7.320;2022-08-05T10:03:54;3.08;;;2.72;;
11064;SDS011;5585;52.530;7.320;2022-08-05T10:06:24;3.30;;;2.50;;
11064;SDS011;5585;52.530;7.320;2022-08-05T10:08:50;3.30;;;2.72;;
11064;SDS011;5585;52.530;7.320;2022-08-05T10:11:17;4.57;;;2.70;;
11064;SDS011;5585;52.530;7.320;2022-08-05T10:13:43;3.35;;;2.55;;
11064;SDS011;5585;52.530;7.320;2022-08-05T10:18:53;3.22;;;2.05;;
11064;SDS011;5585;52.530;7.320;2022-08-05T10:21:20;2.80;;;2.20;;
11064;SDS011;5585;52.530;7.320;2022-08-05T10:23:46;4.90;;;2.67;;
11064;SDS011;5585;52.530;7.320;2022-08-05T10:26:13;3.38;;;2.45;;
11064;SDS011;5585;52.530;7.320;2022-08-05T10:28:39;5.30;;;2.60;;
11064;SDS011;5585;52.530;7.320;2022-08-05T10:31:06;3.17;;;2.42;;
11064;SDS011;5585;52.530;7.320;2022-08-05T10:33:33;4.50;;;2.80;;
11064;SDS011;5585;52.530;7.320;2022-08-05T10:36:01;3.65;;;2.50;;
11064;SDS011;5585;52.530;7.320;2022-08-05T10:38:29;3.30;;;2.40;;
11064;SDS011;5585;52.530;7.320;2022-08-05T10:40:57;3.40;;;2.65;;
11064;SDS011;5585;52.530;7.320;2022-08-05T10:43:33;3.13;;;2.58;;
11064;SDS011;5585;52.530;7.320;2022-08-05T10:46:01;4.43;;;2.75;;
11064;SDS011;5585;52.530;7.320;2022-08-05T10:48:29;3.95;;;2.10;;
11064;SDS011;5585;52.530;7.320;2022-08-05T10:50:56;3.63;;;2.13;;
11064;SDS011;5585;52.530;7.320;2022-08-05T10:53:40;3.50;;;1.88;;
11064;SDS011;5585;52.530;7.320;2022-08-05T10:56:08;3.20;;;2.15;;
11064;SDS011;5585;52.530;7.320;2022-08-05T10:58:35;3.47;;;1.88;;
11064;SDS011;5585;52.530;7.320;2022-08-05T11:01:12;1.90;;;1.35;;
11064;SDS011;5585;52.530;7.320;2022-08-05T11:03:47;1.48;;;1.20;;
11064;SDS011;5585;52.530;7.320;2022-08-05T11:06:24;1.35;;;1.25;;
11064;SDS011;5585;52.530;7.320;2022-08-05T11:09:10;3.30;;;1.38;;
11064;SDS011;5585;52.530;7.320;2022-08-05T11:11:37;1.75;;;1.05;;
11064;SDS011;5585;52.530;7.320;2022-08-05T11:14:04;1.20;;;1.05;;
11064;SDS011;5585;52.530;7.320;2022-08-05T11:16:30;1.52;;;1.00;;
11064;SDS011;5585;52.530;7.320;2022-08-05T11:21:42;1.27;;;1.00;;
11064;SDS011;5585;52.530;7.320;2022-08-05T11:24:10;2.22;;;1.02;;
11064;SDS011;5585;52.530;7.320;2022-08-05T11:26:37;1.35;;;1.00;;
11064;SDS011;5585;52.530;7.320;2022-08-05T11:29:04;2.38;;;1.50;;
11064;SDS011;5585;52.530;7.320;2022-08-05T11:31:30;1.63;;;1.30;;
11064;SDS011;5585;52.530;7.320;2022-08-05T11:34:00;1.45;;;1.00;;
11064;SDS011;5585;52.530;7.320;2022-08-05T11:42:07;1.25;;;0.80;;
11064;SDS011;5585;52.530;7.320;2022-08-05T11:44:35;4.68;;;0.80;;
11064;SDS011;5585;52.530;7.320;2022-08-05T11:47:02;1.83;;;0.70;;
11064;SDS011;5585;52.530;7.320;2022-08-05T11:49:28;1.08;;;0.77;;
11064;SDS011;5585;52.530;7.320;2022-08-05T11:51:55;1.15;;;0.65;;
11064;SDS011;5585;52.530;7.320;2022-08-05T11:54:23;1.35;;;0.70;;
11064;SDS011;5585;52.530;7.320;2022-08-05T11:56:52;1.27;;;0.70;;
11064;SDS011;5585;52.530;7.320;2022-08-05T11:59:20;1.05;;;0.75;;
11064;SDS011;5585;52.530;7.320;2022-08-05T12:01:51;0.50;;;0.50;;
11064;SDS011;5585;52.530;7.320;2022-08-05T12:04:18;1.30;;;0.70;;
11064;SDS011;5585;52.530;7.320;2022-08-05T12:06:44;1.75;;;0.60;;
11064;SDS011;5585;52.530;7.320;2022-08-05T12:09:11;1.13;;;0.43;;
11064;SDS011;5585;52.530;7.320;2022-08-05T12:11:37;0.95;;;0.45;;
11064;SDS011;5585;52.530;7.320;2022-08-05T12:14:08;1.63;;;0.43;;
11064;SDS011;5585;52.530;7.320;2022-08-05T12:16:36;1.98;;;0.68;;
11064;SDS011;5585;52.530;7.320;2022-08-05T12:19:03;0.70;;;0.40;;
11064;SDS011;5585;52.530;7.320;2022-08-05T12:21:30;0.63;;;0.40;;
11064;SDS011;5585;52.530;7.320;2022-08-05T12:23:58;1.10;;;0.57;;
11064;SDS011;5585;52.530;7.320;2022-08-05T12:26:29;0.17;;;0.17;;
11064;SDS011;5585;52.530;7.320;2022-08-05T12:28:55;1.20;;;0.40;;
11064;SDS011;5585;52.530;7.320;2022-08-05T12:31:22;0.63;;;0.40;;
11064;SDS011;5585;52.530;7.320;2022-08-05T12:33:49;1.05;;;0.40;;
11064;SDS011;5585;52.530;7.320;2022-08-05T12:36:17;1.05;;;0.40;;
11064;SDS011;5585;52.530;7.320;2022-08-05T12:38:43;2.38;;;0.40;;
11064;SDS011;5585;52.530;7.320;2022-08-05T12:41:10;2.13;;;0.80;;
11064;SDS011;5585;52.530;7.320;2022-08-05T12:43:47;1.63;;;0.40;;
11064;SDS011;5585;52.530;7.320;2022-08-05T12:46:19;2.30;;;0.50;;
11064;SDS011;5585;52.530;7.320;2022-08-05T12:48:46;0.50;;;0.38;;
11064;SDS011;5585;52.530;7.320;2022-08-05T12:51:14;1.33;;;0.50;;
11064;SDS011;5585;52.530;7.320;2022-08-05T12:53:43;1.30;;;0.30;;
11064;SDS011;5585;52.530;7.320;2022-08-05T12:56:16;1.20;;;0.40;;
11064;SDS011;5585;52.530;7.320;2022-08-05T12:58:43;0.98;;;0.32;;
11064;SDS011;5585;52.530;7.320;2022-08-05T13:01:12;1.55;;;0.73;;
11064;SDS011;5585;52.530;7.320;2022-08-05T13:03:38;2.13;;;0.47;;
11064;SDS011;5585;52.530;7.320;2022-08-05T13:06:05;0.35;;;0.32;;
11064;SDS011;5585;52.530;7.320;2022-08-05T13:08:36;1.00;;;0.30;;
11064;SDS011;5585;52.530;7.320;2022-08-05T13:11:02;0.43;;;0.30;;
11064;SDS011;5585;52.530;7.320;2022-08-05T13:13:29;1.38;;;0.45;;
11064;SDS011;5585;52.530;7.320;2022-08-05T13:15:55;0.93;;;0.38;;
11064;SDS011;5585;52.530;7.320;2022-08-05T13:18:22;0.43;;;0.25;;
11064;SDS011;5585;52.530;7.320;2022-08-05T13:20:48;0.75;;;0.30;;
11064;SDS011;5585;52.530;7.320;2022-08-05T13:23:15;0.85;;;0.32;;
11064;SDS011;5585;52.530;7.320;2022-08-05T13:25:43;1.65;;;0.40;;
11064;SDS011;5585;52.530;7.320;2022-08-05T13:28:09;0.95;;;0.30;;
11064;SDS011;5585;52.530;7.320;2022-08-05T13:30:37;1.85;;;0.50;;
11064;SDS011;5585;52.530;7.320;2022-08-05T13:33:03;0.50;;;0.30;;
11064;SDS011;5585;52.530;7.320;2022-08-05T13:35:29;0.77;;;0.30;;
11064;SDS011;5585;52.530;7.320;2022-08-05T13:37:56;0.98;;;0.40;;
11064;SDS011;5585;52.530;7.320;2022-08-05T13:40:22;0.20;;;0.20;;
11064;SDS011;5585;52.530;7.320;2022-08-05T13:42:50;0.30;;;0.20;;
11064;SDS011;5585;52.530;7.320;2022-08-05T13:45:17;1.23;;;0.40;;
11064;SDS011;5585;52.530;7.320;2022-08-05T13:47:44;3.28;;;1.50;;
11064;SDS011;5585;52.530;7.320;2022-08-05T13:50:10;2.95;;;1.15;;
11064;SDS011;5585;52.530;7.320;2022-08-05T13:52:37;9.52;;;3.63;;
11064;SDS011;5585;52.530;7.320;2022-08-05T13:55:03;4.15;;;1.90;;
11064;SDS011;5585;52.530;7.320;2022-08-05T13:57:30;3.55;;;1.52;;
11064;SDS011;5585;52.530;7.320;2022-08-05T13:59:58;5.38;;;2.33;;
11064;SDS011;5585;52.530;7.320;2022-08-05T14:02:24;4.50;;;2.22;;
11064;SDS011;5585;52.530;7.320;2022-08-05T14:04:51;6.05;;;2.20;;
11064;SDS011;5585;52.530;7.320;2022-08-05T14:07:36;4.53;;;1.25;;
11064;SDS011;5585;52.530;7.320;2022-08-05T14:10:04;4.53;;;1.42;;
11064;SDS011;5585;52.530;7.320;2022-08-05T14:12:30;3.42;;;1.27;;
11064;SDS011;5585;52.530;7.320;2022-08-05T14:14:58;2.60;;;0.85;;
11064;SDS011;5585;52.530;7.320;2022-08-05T14:17:25;1.30;;;0.50;;
11064;SDS011;5585;52.530;7.320;2022-08-05T14:19:51;1.98;;;0.70;;
11064;SDS011;5585;52.530;7.320;2022-08-05T14:22:18;3.30;;;0.68;;
11064;SDS011;5585;52.530;7.320;2022-08-05T14:24:45;3.03;;;0.80;;
11064;SDS011;5585;52.530;7.320;2022-08-05T14:27:12;4.82;;;1.00;;
11064;SDS011;5585;52.530;7.320;2022-08-05T14:29:38;1.50;;;0.77;;
11064;SDS011;5585;52.530;7.320;2022-08-05T14:32:06;1.88;;;0.50;;
11064;SDS011;5585;52.530;7.320;2022-08-05T14:34:33;2.25;;;0.50;;
11064;SDS011;5585;52.530;7.320;2022-08-05T14:36:59;5.03;;;1.73;;
11064;SDS011;5585;52.530;7.320;2022-08-05T14:39:26;6.80;;;2.45;;
11064;SDS011;5585;52.530;7.320;2022-08-05T14:41:52;3.97;;;1.60;;
11064;SDS011;5585;52.530;7.320;2022-08-05T14:44:19;1.25;;;0.73;;
11064;SDS011;5585;52.530;7.320;2022-08-05T14:46:45;5.72;;;1.85;;
11064;SDS011;5585;52.530;7.320;2022-08-05T14:49:13;1.73;;;0.77;;
11064;SDS011;5585;52.530;7.320;2022-08-05T14:51:40;1.67;;;0.90;;
11064;SDS011;5585;52.530;7.320;2022-08-05T14:54:06;2.50;;;0.60;;
11064;SDS011;5585;52.530;7.320;2022-08-05T14:56:33;1.50;;;0.60;;
11064;SDS011;5585;52.530;7.320;2022-08-05T14:59:00;7.43;;;1.23;;
11064;SDS011;5585;52.530;7.320;2022-08-05T15:01:26;2.33;;;0.77;;
11064;SDS011;5585;52.530;7.320;2022-08-05T15:03:53;1.67;;;0.50;;
11064;SDS011;5585;52.530;7.320;2022-08-05T15:06:21;1.20;;;0.60;;
11064;SDS011;5585;52.530;7.320;2022-08-05T15:08:47;1.65;;;0.60;;
11064;SDS011;5585;52.530;7.320;2022-08-05T15:11:14;2.30;;;0.65;;
11064;SDS011;5585;52.530;7.320;2022-08-05T15:13:41;2.10;;;0.60;;
11064;SDS011;5585;52.530;7.320;2022-08-05T15:16:07;2.78;;;0.50;;